Time;durP1;ratioP1;P1;durP2;ratioP2;P2;SDS_P1;SDS_P2;PMS_P1;PMS_P2;Temp;Humidity;BMP_temperature;BMP_pressure;BME280_temperature;BME280_humidity;BME280_pressure;Samples;Min_cycle;Max_cycle;Signal;HPM_P1;HPM_P2
2021/04/10 00:01:07;;;;;;;7.75;2.65;;;;;;;5.30;72.54;101572.13;5035527;28;20439;-72
2021/04/10 00:03:34;;;;;;;8.80;3.25;;;;;;;5.26;72.37;101575.63;5036876;28;20065;-73
2021/04/10 00:06:01;;;;;;;6.25;2.50;;;;;;;5.26;72.35;101579.19;5035727;28;20065;-72
2021/04/10 00:08:28;;;;;;;8.48;2.45;;;;;;;5.23;72.15;101574.75;5039707;28;21569;-73
2021/04/10 00:10:55;;;;;;;10.50;3.03;;;;;;;5.20;72.68;101565.94;5035513;28;20053;-72
2021/04/10 00:13:22;;;;;;;7.50;2.50;;;;;;;5.25;72.90;101564.16;5043632;28;20061;-72
2021/04/10 00:15:50;;;;;;;10.70;3.05;;;;;;;5.21;73.37;101568.56;5036984;28;20444;-73
2021/04/10 00:18:17;;;;;;;7.88;2.63;;;;;;;5.21;73.49;101568.56;5043026;28;20174;-72
2021/04/10 00:20:43;;;;;;;7.50;2.65;;;;;;;5.17;73.71;101568.56;5033752;28;20079;-72
2021/04/10 00:23:11;;;;;;;5.80;2.65;;;;;;;5.21;73.99;101572.97;5038975;28;20064;-72
2021/04/10 00:25:38;;;;;;;7.93;3.20;;;;;;;5.22;73.68;101567.69;5037316;28;20067;-73
2021/04/10 00:28:05;;;;;;;6.80;2.78;;;;;;;5.22;73.77;101572.09;5037856;28;20056;-72
2021/04/10 00:30:32;;;;;;;6.78;2.88;;;;;;;5.21;74.36;101578.25;5034638;28;20053;-72
2021/04/10 00:33:00;;;;;;;11.80;3.22;;;;;;;5.18;74.42;101583.56;5037780;28;20068;-72
2021/04/10 00:35:28;;;;;;;7.97;3.78;;;;;;;5.21;74.71;101586.19;5034393;28;20071;-72
2021/04/10 00:37:55;;;;;;;9.35;3.30;;;;;;;5.18;74.78;101580.94;5036014;28;20071;-72
2021/04/10 00:40:22;;;;;;;8.18;3.55;;;;;;;5.09;75.11;101589.72;5038024;28;20056;-72
2021/04/10 00:42:49;;;;;;;7.47;3.33;;;;;;;5.13;75.79;101586.19;5036816;28;20061;-72
2021/04/10 00:45:16;;;;;;;12.52;3.70;;;;;;;5.13;75.65;101593.25;5036333;28;20064;-72
2021/04/10 00:47:43;;;;;;;10.50;3.92;;;;;;;5.11;75.54;101590.59;5036733;28;20564;-73
2021/04/10 00:50:12;;;;;;;8.60;3.97;;;;;;;5.12;75.29;101589.72;5038470;28;20143;-72
2021/04/10 00:52:40;;;;;;;10.27;3.40;;;;;;;5.07;75.36;101590.59;5035830;28;20107;-72
2021/04/10 00:55:10;;;;;;;14.75;3.75;;;;;;;5.07;74.86;101582.66;5037237;28;20053;-73
2021/04/10 00:57:37;;;;;;;7.95;4.05;;;;;;;5.07;74.86;101580.88;5030715;28;20051;-73
2021/04/10 01:00:05;;;;;;;8.25;3.33;;;;;;;4.95;75.21;101587.00;5033641;28;20215;-73
2021/04/10 01:02:32;;;;;;;9.20;2.97;;;;;;;4.96;74.51;101591.44;5046691;28;20696;-72
2021/04/10 01:04:59;;;;;;;9.05;2.83;;;;;;;4.93;74.65;101591.44;5034274;28;20498;-72
2021/04/10 01:07:27;;;;;;;7.25;2.97;;;;;;;4.86;74.27;101589.66;5030080;28;20056;-72
2021/04/10 01:09:55;;;;;;;8.75;3.50;;;;;;;4.90;74.53;101582.59;5030949;28;20060;-73
2021/04/10 01:12:33;;;;;;;10.13;3.10;;;;;;;4.92;74.65;101589.69;5028820;28;20065;-73
2021/04/10 01:15:13;;;;;;;7.45;2.75;;;;;;;4.99;74.41;101588.81;5035466;28;20065;-72
2021/04/10 01:17:44;;;;;;;6.18;2.47;;;;;;;4.88;74.39;101592.28;5030826;28;20152;-74
2021/04/10 01:20:35;;;;;;;6.93;2.40;;;;;;;4.89;74.11;101581.72;5035660;28;20325;-73
2021/04/10 01:23:19;;;;;;;9.15;2.70;;;;;;;4.91;74.21;101582.59;5002361;28;20067;-73
2021/04/10 01:25:57;;;;;;;10.77;2.80;;;;;;;4.93;73.44;101579.97;5028325;28;21265;-73
2021/04/10 01:28:48;;;;;;;6.00;2.50;;;;;;;4.94;73.49;101585.28;5048634;28;20446;-72
2021/04/10 01:31:16;;;;;;;4.53;2.30;;;;;;;4.91;73.37;101589.66;5033282;28;20140;-72
2021/04/10 01:33:47;;;;;;;7.53;3.00;;;;;;;4.89;73.87;101578.19;5035931;28;20056;-72
2021/04/10 01:36:18;;;;;;;6.18;2.60;;;;;;;4.87;73.36;101572.91;5030705;28;20321;-73
2021/04/10 01:38:48;;;;;;;6.50;2.40;;;;;;;4.91;73.61;101571.16;5034466;28;20059;-72
2021/04/10 01:41:17;;;;;;;7.03;2.38;;;;;;;4.84;73.15;101575.53;5033146;28;20475;-72
2021/04/10 01:43:47;;;;;;;6.57;2.30;;;;;;;4.81;73.67;101573.75;5052986;28;20053;-74
2021/04/10 01:46:16;;;;;;;9.90;2.97;;;;;;;4.80;74.02;101572.00;5033146;28;20056;-74
2021/04/10 01:48:45;;;;;;;7.65;2.50;;;;;;;4.81;73.79;101581.69;5038067;28;20403;-74
2021/04/10 01:51:13;;;;;;;9.27;2.95;;;;;;;4.83;74.02;101584.34;5036885;28;20072;-74
2021/04/10 01:53:42;;;;;;;6.20;2.38;;;;;;;4.83;73.92;101577.28;5035550;28;20319;-74
2021/04/10 01:56:11;;;;;;;6.68;2.13;;;;;;;4.80;74.27;101579.94;5036727;28;20064;-75
2021/04/10 01:58:40;;;;;;;8.23;2.88;;;;;;;4.82;73.81;101583.47;5032730;28;20060;-74
2021/04/10 02:01:11;;;;;;;8.00;2.20;;;;;;;4.81;74.22;101573.75;5034209;28;20064;-74
2021/04/10 02:03:39;;;;;;;5.72;2.42;;;;;;;4.83;74.15;101576.41;5036348;28;20060;-75
2021/04/10 02:06:09;;;;;;;7.45;2.58;;;;;;;4.84;73.74;101571.13;5038377;28;20437;-75
2021/04/10 02:08:37;;;;;;;5.82;2.20;;;;;;;4.86;74.04;101577.28;5033558;28;20475;-72
2021/04/10 02:11:05;;;;;;;8.32;2.10;;;;;;;4.85;73.86;101579.94;5018074;28;20049;-73
2021/04/10 02:13:34;;;;;;;7.03;2.13;;;;;;;4.85;74.09;101580.84;5038604;28;20120;-73
2021/04/10 02:16:01;;;;;;;7.05;2.17;;;;;;;4.82;74.16;101572.88;5027976;28;20045;-73
2021/04/10 02:18:30;;;;;;;8.75;2.60;;;;;;;4.83;75.12;101581.69;5033924;28;20056;-73
2021/04/10 02:20:58;;;;;;;7.72;2.38;;;;;;;4.82;75.00;101582.59;5034840;28;20444;-73
2021/04/10 02:23:25;;;;;;;9.55;3.15;;;;;;;4.82;75.60;101598.47;5036574;28;20057;-73
2021/04/10 02:25:52;;;;;;;5.95;2.63;;;;;;;4.86;75.31;101597.56;5036236;28;20436;-72
2021/04/10 02:28:19;;;;;;;5.40;2.40;;;;;;;4.86;75.75;101597.56;5040079;28;20087;-73
2021/04/10 02:30:46;;;;;;;6.95;2.50;;;;;;;4.85;75.66;101594.06;5030658;28;20132;-73
2021/04/10 02:33:20;;;;;;;8.57;2.50;;;;;;;4.86;76.10;101600.22;5037108;28;20060;-72
2021/04/10 02:35:52;;;;;;;7.07;2.47;;;;;;;4.88;76.02;101594.94;5035928;28;20094;-73
2021/04/10 02:38:21;;;;;;;6.93;2.42;;;;;;;4.91;75.73;101595.84;5030575;28;20348;-73
2021/04/10 02:40:53;;;;;;;5.15;2.20;;;;;;;4.88;75.96;101595.81;5016209;28;20081;-72
2021/04/10 02:43:26;;;;;;;7.90;2.40;;;;;;;4.93;75.86;101601.13;5021847;28;20057;-72
2021/04/10 02:45:57;;;;;;;7.50;2.23;;;;;;;4.93;76.50;101598.47;5016884;28;20057;-73
2021/04/10 02:48:27;;;;;;;8.45;2.40;;;;;;;4.93;76.30;101601.13;5019250;28;20061;-72
2021/04/10 02:50:57;;;;;;;6.78;2.58;;;;;;;4.85;76.54;101583.47;5018628;28;20061;-72
2021/04/10 02:53:25;;;;;;;6.70;2.63;;;;;;;4.89;77.02;101592.31;5018239;28;20064;-72
2021/04/10 02:55:56;;;;;;;8.27;2.58;;;;;;;4.88;76.72;101598.47;5018933;28;20065;-72
2021/04/10 02:58:25;;;;;;;9.80;2.95;;;;;;;4.90;76.74;101593.19;5017443;28;20057;-72
2021/04/10 03:00:55;;;;;;;6.38;2.45;;;;;;;4.90;76.78;101595.81;5017235;28;20057;-72
2021/04/10 03:03:23;;;;;;;5.88;2.30;;;;;;;4.95;77.30;101602.00;5018507;28;20060;-71
2021/04/10 03:05:50;;;;;;;5.22;2.33;;;;;;;4.95;76.98;101604.66;5016800;28;20128;-72
2021/04/10 03:08:20;;;;;;;7.72;2.53;;;;;;;4.92;76.38;101602.00;5019816;28;20618;-72
2021/04/10 03:10:49;;;;;;;7.70;3.30;;;;;;;4.92;76.80;101600.25;5019425;28;20065;-72
2021/04/10 03:13:17;;;;;;;7.50;2.22;;;;;;;4.88;76.72;101595.81;5017397;28;20095;-72
2021/04/10 03:15:45;;;;;;;6.10;2.30;;;;;;;4.86;76.64;101597.56;5015849;28;20084;-72
2021/04/10 03:18:14;;;;;;;12.48;2.78;;;;;;;4.83;76.29;101595.78;5018469;28;20072;-73
2021/04/10 03:20:41;;;;;;;3.38;1.80;;;;;;;4.84;76.25;101587.00;5018833;28;20385;-73
2021/04/10 03:23:08;;;;;;;6.95;2.33;;;;;;;4.80;76.03;101600.19;5016755;28;20053;-72
2021/04/10 03:25:35;;;;;;;5.30;2.08;;;;;;;4.82;76.15;101591.41;5018947;28;20258;-72
2021/04/10 03:28:02;;;;;;;4.53;2.00;;;;;;;4.88;76.06;101598.47;5017034;28;20080;-72
2021/04/10 03:30:30;;;;;;;5.65;2.03;;;;;;;4.86;76.01;101606.38;5015854;28;20066;-72
2021/04/10 03:32:57;;;;;;;9.40;3.15;;;;;;;4.76;76.37;101603.72;5019945;28;20060;-71
2021/04/10 03:35:27;;;;;;;4.53;2.45;;;;;;;4.79;75.75;101599.31;5020048;28;20656;-73
2021/04/10 03:37:55;;;;;;;6.43;2.17;;;;;;;4.80;76.01;101608.13;5022303;28;20060;-72
2021/04/10 03:40:22;;;;;;;10.02;2.40;;;;;;;4.82;75.93;101596.69;5018904;28;20053;-72
2021/04/10 03:42:52;;;;;;;10.13;2.28;;;;;;;4.78;75.81;101596.66;5021974;28;20061;-72
2021/04/10 03:45:21;;;;;;;2.70;1.60;;;;;;;4.78;75.61;101596.66;5015614;28;20068;-72
2021/04/10 03:47:54;;;;;;;3.72;1.83;;;;;;;4.81;75.64;101607.25;5017838;28;20151;-71
2021/04/10 03:50:22;;;;;;;5.75;2.30;;;;;;;4.79;75.53;101603.72;5016530;28;20098;-72
2021/04/10 03:52:50;;;;;;;5.93;1.83;;;;;;;4.82;75.20;101611.69;5020784;28;20061;-72
2021/04/10 03:55:16;;;;;;;4.72;1.95;;;;;;;4.74;74.86;101606.34;5015556;28;20073;-72
2021/04/10 03:57:43;;;;;;;4.35;1.60;;;;;;;4.79;75.49;101612.53;5019685;28;20399;-72
2021/04/10 04:00:12;;;;;;;7.32;2.10;;;;;;;4.75;75.30;101601.94;5014191;28;21006;-73
2021/04/10 04:02:39;;;;;;;8.38;3.00;;;;;;;4.75;75.03;101613.41;5018915;28;20127;-72
2021/04/10 04:05:07;;;;;;;4.28;1.75;;;;;;;4.76;75.75;101611.66;5015762;28;20061;-73
2021/04/10 04:07:34;;;;;;;3.80;1.85;;;;;;;4.78;75.64;101612.53;5020674;28;20061;-73
2021/04/10 04:10:01;;;;;;;8.32;1.90;;;;;;;4.77;75.37;101614.28;5012044;28;20342;-73
2021/04/10 04:12:28;;;;;;;6.65;2.20;;;;;;;4.80;75.17;101613.41;5020201;28;20084;-72
2021/04/10 04:14:55;;;;;;;5.60;1.80;;;;;;;4.78;75.92;101608.09;5016075;28;20503;-72
2021/04/10 04:17:23;;;;;;;5.30;1.85;;;;;;;4.75;75.88;101608.13;5021706;28;20061;-72
2021/04/10 04:19:50;;;;;;;4.57;1.50;;;;;;;4.79;76.08;101611.66;5012850;28;20179;-72
2021/04/10 04:22:17;;;;;;;8.00;1.90;;;;;;;4.79;75.35;101609.03;5015001;28;20132;-73
2021/04/10 04:24:44;;;;;;;4.97;2.40;;;;;;;4.74;75.40;101608.13;5018136;28;20091;-72
2021/04/10 04:27:11;;;;;;;6.15;2.00;;;;;;;4.78;75.79;101615.16;5017852;28;20061;-72
2021/04/10 04:29:39;;;;;;;4.78;1.75;;;;;;;4.72;75.87;101620.44;5018350;28;20072;-72
2021/04/10 04:32:07;;;;;;;7.07;2.10;;;;;;;4.72;76.11;101618.69;5016319;28;20057;-72
2021/04/10 04:34:36;;;;;;;5.25;1.45;;;;;;;4.72;75.81;101618.69;5017879;28;20060;-73
2021/04/10 04:37:04;;;;;;;4.65;1.75;;;;;;;4.71;76.23;101621.31;5016360;28;20058;-73
2021/04/10 04:39:31;;;;;;;4.18;1.55;;;;;;;4.74;76.11;101624.84;5016608;28;20057;-72
2021/04/10 04:41:59;;;;;;;7.20;2.05;;;;;;;4.76;75.51;101628.38;5017506;28;20061;-72
2021/04/10 04:44:26;;;;;;;4.47;1.85;;;;;;;4.75;75.59;101624.00;5017496;28;20061;-73
2021/04/10 04:46:53;;;;;;;4.65;1.77;;;;;;;4.70;75.64;101622.19;5018563;28;20107;-72
2021/04/10 04:49:20;;;;;;;5.07;1.70;;;;;;;4.73;75.65;101616.91;5024013;28;20538;-72
2021/04/10 04:51:48;;;;;;;8.02;2.00;;;;;;;4.74;75.88;101624.84;5015942;28;20696;-74
2021/04/10 04:54:16;;;;;;;8.23;2.10;;;;;;;4.69;75.78;101623.94;5017654;28;20068;-72
2021/04/10 04:56:42;;;;;;;6.75;1.90;;;;;;;4.68;75.84;101615.13;5013342;28;20116;-73
2021/04/10 04:59:09;;;;;;;3.92;1.83;;;;;;;4.65;76.52;101615.13;5020012;28;20321;-73
2021/04/10 05:01:36;;;;;;;4.85;1.77;;;;;;;4.64;76.12;101613.34;5014972;28;20065;-72
2021/04/10 05:04:03;;;;;;;3.75;1.77;;;;;;;4.65;75.94;101616.88;5015523;28;20062;-72
2021/04/10 05:06:30;;;;;;;4.30;1.80;;;;;;;4.64;76.18;101615.97;5015395;28;20057;-72
2021/04/10 05:08:58;;;;;;;6.85;1.90;;;;;;;4.65;76.41;101627.47;5012489;28;20069;-72
2021/04/10 05:11:25;;;;;;;6.57;2.08;;;;;;;4.65;76.61;101630.97;5015733;28;20083;-73
2021/04/10 05:13:51;;;;;;;6.55;2.00;;;;;;;4.60;76.21;101635.38;5016503;28;20061;-74
2021/04/10 05:16:18;;;;;;;3.95;1.90;;;;;;;4.62;76.60;101635.38;5016865;28;20065;-74
2021/04/10 05:18:45;;;;;;;4.97;1.60;;;;;;;4.62;76.37;101635.38;5019149;28;20060;-73
2021/04/10 05:21:12;;;;;;;4.90;1.40;;;;;;;4.60;76.33;101637.13;5016848;28;20107;-74
2021/04/10 05:23:39;;;;;;;5.63;1.88;;;;;;;4.63;76.59;101634.47;5033039;28;20335;-74
2021/04/10 05:26:07;;;;;;;2.47;1.70;;;;;;;4.61;76.24;101639.75;5012486;28;20072;-74
2021/04/10 05:28:34;;;;;;;3.10;1.77;;;;;;;4.71;75.39;101642.47;5012966;28;20065;-74
2021/04/10 05:31:01;;;;;;;4.40;2.10;;;;;;;4.66;74.68;101639.78;5013823;28;20097;-73
2021/04/10 05:33:29;;;;;;;2.38;1.40;;;;;;;4.65;74.99;101644.22;5018447;28;20266;-74
2021/04/10 05:35:57;;;;;;;3.85;2.08;;;;;;;4.66;74.51;101643.31;5015019;28;20065;-74
2021/04/10 05:38:24;;;;;;;3.10;1.48;;;;;;;4.65;73.42;101649.50;5019560;28;20495;-73
2021/04/10 05:40:51;;;;;;;4.60;1.92;;;;;;;4.72;73.33;101647.75;5010279;28;20066;-74
2021/04/10 05:43:19;;;;;;;3.17;1.40;;;;;;;4.72;73.24;101647.75;5022521;28;20061;-74
2021/04/10 05:45:46;;;;;;;2.20;1.60;;;;;;;4.72;72.97;101657.47;5010151;28;20116;-73
2021/04/10 05:48:13;;;;;;;8.48;1.80;;;;;;;4.68;72.92;101654.81;5017533;28;20061;-74
2021/04/10 05:50:40;;;;;;;3.17;1.50;;;;;;;4.77;72.54;101646.03;5013137;28;20441;-73
2021/04/10 05:53:07;;;;;;;2.67;1.40;;;;;;;4.79;72.79;101661.91;5019124;28;20054;-73
2021/04/10 05:55:33;;;;;;;4.13;1.70;;;;;;;4.78;73.08;101658.34;5015673;28;20068;-74
2021/04/10 05:58:00;;;;;;;4.07;1.88;;;;;;;4.83;72.75;101658.38;5023177;28;20065;-73
2021/04/10 06:00:28;;;;;;;5.32;1.88;;;;;;;4.84;72.95;101657.53;5014556;28;20058;-73
2021/04/10 06:02:56;;;;;;;3.72;1.50;;;;;;;4.83;72.49;101659.25;5018037;28;20065;-75
2021/04/10 06:05:23;;;;;;;3.55;1.73;;;;;;;4.85;72.48;101661.91;5012698;28;20067;-74
2021/04/10 06:07:51;;;;;;;4.03;1.40;;;;;;;4.86;72.36;101655.75;5021716;28;20088;-74
2021/04/10 06:10:20;;;;;;;2.47;1.35;;;;;;;4.84;72.60;101665.47;5013799;28;20057;-74
2021/04/10 06:12:47;;;;;;;3.10;1.50;;;;;;;4.93;72.45;101668.13;5022974;28;20057;-74
2021/04/10 06:15:17;;;;;;;5.70;1.70;;;;;;;4.96;72.28;101675.22;5019169;28;20134;-74
2021/04/10 06:17:45;;;;;;;4.60;1.55;;;;;;;4.93;72.35;101675.19;5018624;28;20063;-75
2021/04/10 06:20:16;;;;;;;1.90;1.33;;;;;;;4.94;72.25;101669.00;5018287;28;20473;-75
2021/04/10 06:22:42;;;;;;;2.85;1.58;;;;;;;4.99;72.05;101668.16;5016569;28;20064;-74
2021/04/10 06:25:10;;;;;;;2.38;1.40;;;;;;;5.00;72.02;101671.69;5017334;28;20559;-73
2021/04/10 06:27:37;;;;;;;1.25;1.15;;;;;;;5.03;71.53;101672.56;5017705;28;20053;-73
2021/04/10 06:30:07;;;;;;;2.30;1.40;;;;;;;5.05;71.81;101672.59;5017025;28;20061;-73
2021/04/10 06:32:34;;;;;;;2.88;1.50;;;;;;;5.10;71.49;101673.50;5015652;28;20067;-72
2021/04/10 06:35:03;;;;;;;6.00;1.98;;;;;;;5.10;71.24;101667.31;5015924;28;20061;-73
2021/04/10 06:37:30;;;;;;;3.70;1.80;;;;;;;5.07;71.24;101668.19;5020793;28;20065;-72
2021/04/10 06:39:57;;;;;;;5.40;1.73;;;;;;;5.02;71.19;101669.91;5016781;28;20068;-72
2021/04/10 06:42:25;;;;;;;4.45;1.70;;;;;;;5.11;71.70;101672.63;5020590;28;20598;-73
2021/04/10 06:44:53;;;;;;;5.07;1.67;;;;;;;5.13;71.62;101673.50;5017349;28;20144;-74
2021/04/10 06:47:22;;;;;;;2.40;1.27;;;;;;;5.15;70.96;101668.22;5013251;28;20148;-73
2021/04/10 06:49:52;;;;;;;4.00;1.75;;;;;;;5.10;71.31;101667.31;5016633;28;20058;-73
2021/04/10 06:52:20;;;;;;;4.40;1.52;;;;;;;5.20;71.26;101677.06;5021736;28;20067;-73
2021/04/10 06:54:55;;;;;;;5.38;1.52;;;;;;;5.26;71.20;101671.81;5020691;28;20180;-73
2021/04/10 06:57:23;;;;;;;6.63;1.83;;;;;;;5.38;70.65;101677.13;5020020;28;20072;-72
2021/04/10 06:59:58;;;;;;;2.72;1.50;;;;;;;5.38;70.92;101682.41;5018278;28;20053;-72
2021/04/10 07:02:26;;;;;;;4.78;2.20;;;;;;;5.40;70.54;101680.66;5026839;28;20175;-72
2021/04/10 07:04:55;;;;;;;4.82;2.03;;;;;;;5.28;70.78;101687.66;5019152;28;20081;-75
2021/04/10 07:07:24;;;;;;;4.45;1.90;;;;;;;5.37;71.24;101698.28;5025866;28;20156;-73
2021/04/10 07:09:51;;;;;;;3.25;1.80;;;;;;;5.47;70.72;101694.78;5016766;28;20057;-72
2021/04/10 07:12:18;;;;;;;5.97;1.83;;;;;;;5.50;70.56;101700.09;5022752;28;20148;-73
2021/04/10 07:14:45;;;;;;;3.42;1.80;;;;;;;5.52;70.97;101706.28;5016965;28;20053;-73
2021/04/10 07:17:12;;;;;;;6.20;1.90;;;;;;;5.55;70.14;101702.72;5021068;28;20093;-72
2021/04/10 07:19:39;;;;;;;6.72;2.00;;;;;;;5.57;70.51;101709.81;5013272;28;20061;-72
2021/04/10 07:22:08;;;;;;;5.88;1.83;;;;;;;5.49;70.26;101708.03;5019042;28;20355;-72
2021/04/10 07:24:40;;;;;;;6.25;1.80;;;;;;;5.55;70.16;101708.03;5014765;28;20395;-72
2021/04/10 07:27:09;;;;;;;4.78;2.03;;;;;;;5.54;70.19;101707.16;5019296;28;20060;-72
2021/04/10 07:29:38;;;;;;;5.15;1.90;;;;;;;5.51;70.69;101704.50;5014246;28;20061;-73
2021/04/10 07:32:23;;;;;;;5.43;2.20;;;;;;;5.62;70.43;101701.88;5038010;28;20076;-72
2021/04/10 07:34:51;;;;;;;4.55;2.20;;;;;;;5.65;69.43;101701.00;5013606;28;20065;-74
2021/04/10 07:37:36;;;;;;;2.85;2.05;;;;;;;5.73;69.77;101707.19;5022222;28;20061;-73
2021/04/10 07:40:07;;;;;;;5.30;2.00;;;;;;;5.68;69.95;101699.22;5014919;28;20528;-73
2021/04/10 07:42:38;;;;;;;4.50;2.15;;;;;;;5.69;69.52;101705.44;5019592;28;20093;-72
2021/04/10 07:45:07;;;;;;;5.05;1.70;;;;;;;5.68;69.42;101704.53;5015599;28;20072;-72
2021/04/10 07:47:39;;;;;;;6.00;2.00;;;;;;;5.83;68.96;101710.75;5016699;28;20072;-73
2021/04/10 07:50:14;;;;;;;3.95;2.10;;;;;;;5.76;69.02;101708.09;5014720;28;20064;-72
2021/04/10 07:52:41;;;;;;;5.22;1.98;;;;;;;5.84;68.88;101713.41;5015684;28;20444;-72
2021/04/10 07:55:10;;;;;;;8.10;2.35;;;;;;;5.80;69.18;101719.56;5014736;28;20062;-72
2021/04/10 07:57:36;;;;;;;4.90;2.13;;;;;;;5.76;69.39;101720.44;5014688;28;20554;-72
2021/04/10 08:00:05;;;;;;;6.28;2.15;;;;;;;5.71;69.35;101715.13;5015955;28;20160;-72
2021/04/10 08:02:35;;;;;;;4.25;2.20;;;;;;;5.85;69.13;101720.44;5017988;28;20049;-72
2021/04/10 08:05:06;;;;;;;7.30;2.40;;;;;;;5.90;68.94;101720.47;5014455;28;20070;-71
2021/04/10 08:07:34;;;;;;;7.07;2.20;;;;;;;5.91;69.03;101719.59;5018454;28;20053;-72
2021/04/10 08:10:04;;;;;;;4.93;2.00;;;;;;;5.91;69.26;101722.25;5016197;28;20069;-73
2021/04/10 08:12:34;;;;;;;7.95;2.55;;;;;;;5.96;68.70;101715.22;5016670;28;20485;-73
2021/04/10 08:15:04;;;;;;;6.00;2.28;;;;;;;6.06;68.66;101721.38;5014405;28;20073;-73
2021/04/10 08:17:33;;;;;;;6.45;2.30;;;;;;;6.12;68.76;101718.75;5017345;28;20053;-72
2021/04/10 08:20:18;;;;;;;8.38;2.50;;;;;;;6.06;68.37;101717.00;5016170;28;20084;-72
2021/04/10 08:22:47;;;;;;;4.80;2.10;;;;;;;6.14;68.38;101714.34;5015204;28;20067;-73
2021/04/10 08:25:29;;;;;;;4.03;2.00;;;;;;;6.24;68.36;101712.56;5014937;28;20219;-72
2021/04/10 08:27:57;;;;;;;5.75;2.13;;;;;;;6.04;67.69;101721.38;5033060;28;21462;-73
2021/04/10 08:30:24;;;;;;;4.22;2.00;;;;;;;6.05;68.04;101711.69;5017119;28;20060;-72
2021/04/10 08:32:51;;;;;;;4.38;1.92;;;;;;;6.00;67.74;101713.47;5014492;28;20061;-72
2021/04/10 08:35:22;;;;;;;4.82;2.58;;;;;;;6.02;67.87;101711.69;5016229;28;20053;-72
2021/04/10 08:37:53;;;;;;;4.20;2.28;;;;;;;6.07;68.55;101710.78;5028932;28;20065;-72
2021/04/10 08:40:23;;;;;;;5.70;2.30;;;;;;;6.17;68.52;101714.34;5016929;28;20057;-73
2021/04/10 08:42:51;;;;;;;4.82;2.40;;;;;;;6.24;67.59;101716.09;5013800;28;20064;-74
2021/04/10 08:45:23;;;;;;;3.47;1.80;;;;;;;6.23;68.01;101718.75;5020469;28;20053;-72
2021/04/10 08:47:51;;;;;;;4.93;2.00;;;;;;;6.17;67.78;101720.50;5016984;28;20052;-73
2021/04/10 08:50:37;;;;;;;4.47;2.30;;;;;;;6.11;67.63;101717.88;5017854;28;20455;-73
2021/04/10 08:53:06;;;;;;;5.63;2.03;;;;;;;6.26;67.21;101714.31;5013523;28;20072;-75
2021/04/10 08:55:33;;;;;;;2.70;1.95;;;;;;;6.19;67.76;101714.34;5017680;28;20123;-75
2021/04/10 08:58:17;;;;;;;4.88;1.83;;;;;;;6.28;67.06;101712.59;5013888;28;20065;-75
2021/04/10 09:00:46;;;;;;;5.63;2.08;;;;;;;6.39;67.13;101709.03;5020634;28;20072;-74
2021/04/10 09:03:14;;;;;;;5.43;2.20;;;;;;;6.41;65.91;101704.63;5013501;28;20064;-76
2021/04/10 09:05:51;;;;;;;6.18;2.10;;;;;;;6.41;66.36;101710.78;5016578;28;20142;-76
2021/04/10 09:08:23;;;;;;;7.35;2.25;;;;;;;6.43;66.30;101711.66;5013767;28;20100;-74
2021/04/10 09:10:55;;;;;;;6.03;2.13;;;;;;;6.42;65.23;101706.38;5019687;28;20057;-74
2021/04/10 09:13:33;;;;;;;6.28;2.17;;;;;;;6.48;65.47;101714.31;5011700;28;20503;-75
2021/04/10 09:16:29;;;;;;;3.55;1.83;;;;;;;6.54;64.68;101711.69;5020135;28;20057;-76
2021/04/10 09:19:00;;;;;;;6.35;2.08;;;;;;;6.59;64.84;101709.91;5011607;28;20310;-75
2021/04/10 09:21:36;;;;;;;5.82;2.55;;;;;;;6.63;64.51;101716.06;5018258;28;20441;-75
2021/04/10 09:24:26;;;;;;;5.82;2.60;;;;;;;6.76;64.27;101711.63;5016897;28;20470;-76
2021/04/10 09:27:08;;;;;;;5.78;2.45;;;;;;;6.68;64.00;101719.59;5011818;28;20068;-74
2021/04/10 09:29:46;;;;;;;4.82;1.90;;;;;;;6.72;64.17;101716.94;5017804;28;20073;-74
2021/04/10 09:32:32;;;;;;;5.13;2.10;;;;;;;6.74;64.44;101714.25;5023623;28;20061;-75
2021/04/10 09:35:00;;;;;;;5.43;1.98;;;;;;;6.92;63.81;101714.22;5022596;28;20061;-74
2021/04/10 09:37:48;;;;;;;6.13;1.88;;;;;;;6.98;62.96;101709.78;5019487;28;20076;-78
2021/04/10 09:40:20;;;;;;;6.78;2.47;;;;;;;7.00;62.97;101706.25;5021414;28;20057;-77
2021/04/10 09:42:49;;;;;;;3.65;1.52;;;;;;;6.98;62.46;101707.13;5017602;28;20058;-74
2021/04/10 09:45:19;;;;;;;4.20;2.05;;;;;;;6.90;62.14;101721.31;5021142;28;20096;-75
2021/04/10 09:48:15;;;;;;;4.88;1.98;;;;;;;7.02;62.19;101709.78;5018798;28;20487;-75
2021/04/10 09:50:44;;;;;;;5.85;1.90;;;;;;;7.15;62.50;101710.63;5017853;28;20053;-75
2021/04/10 09:53:14;;;;;;;4.78;1.80;;;;;;;7.29;62.10;101714.09;5019248;28;20123;-75
2021/04/10 09:55:42;;;;;;;5.43;1.63;;;;;;;7.24;61.57;101704.38;5023984;28;20065;-75
2021/04/10 09:58:12;;;;;;;4.18;2.13;;;;;;;7.26;62.75;101721.19;5016883;28;20140;-73
2021/04/10 10:00:42;;;;;;;6.65;2.20;;;;;;;7.21;63.18;101707.94;5022792;28;20080;-75
2021/04/10 10:03:11;;;;;;;3.85;2.03;;;;;;;7.25;64.63;101698.19;5018641;28;20053;-73
2021/04/10 10:05:41;;;;;;;5.13;2.10;;;;;;;7.17;65.49;101705.28;5020757;28;20433;-74
2021/04/10 10:08:10;;;;;;;4.50;2.42;;;;;;;7.28;65.42;101698.16;5015938;28;20273;-73
2021/04/10 10:10:38;;;;;;;5.72;2.08;;;;;;;7.11;65.71;101703.53;5021917;28;20064;-74
2021/04/10 10:13:07;;;;;;;4.47;2.17;;;;;;;7.15;66.52;101694.69;5016349;28;20058;-74
2021/04/10 10:15:35;;;;;;;3.58;1.80;;;;;;;7.28;66.95;101693.72;5022668;28;20148;-75
2021/04/10 10:18:13;;;;;;;6.70;2.08;;;;;;;7.42;66.15;101684.81;5019552;28;20085;-75
2021/04/10 10:20:53;;;;;;;5.95;2.03;;;;;;;7.35;66.07;101683.09;5021473;28;20060;-74
2021/04/10 10:23:20;;;;;;;4.20;1.95;;;;;;;7.41;66.33;101678.63;5016159;28;20064;-74
2021/04/10 10:25:47;;;;;;;4.13;1.90;;;;;;;7.60;65.32;101675.88;5023227;28;20136;-73
2021/04/10 10:28:15;;;;;;;6.57;2.10;;;;;;;7.56;66.27;101674.09;5014418;28;20057;-74
2021/04/10 10:30:43;;;;;;;4.15;2.25;;;;;;;7.52;66.11;101657.31;5023783;28;20053;-73
2021/04/10 10:33:10;;;;;;;5.28;2.10;;;;;;;7.64;66.04;101653.69;5010950;28;20152;-73
2021/04/10 10:35:37;;;;;;;5.35;2.47;;;;;;;7.59;65.24;101656.38;5019412;28;20089;-74
2021/04/10 10:38:05;;;;;;;6.00;2.20;;;;;;;7.55;64.69;101651.13;5011825;28;20452;-74
2021/04/10 10:40:33;;;;;;;7.88;2.50;;;;;;;7.53;64.55;101647.59;5016328;28;20072;-73
2021/04/10 10:43:05;;;;;;;5.72;2.00;;;;;;;7.53;64.88;101636.97;5013336;28;20066;-73
2021/04/10 10:45:40;;;;;;;4.07;2.58;;;;;;;7.40;65.05;101639.69;5019981;28;20064;-73
2021/04/10 10:48:22;;;;;;;6.22;2.10;;;;;;;7.25;64.90;101648.63;5013441;28;20061;-74
2021/04/10 10:50:50;;;;;;;5.85;2.10;;;;;;;7.26;64.44;101638.88;5022726;28;20061;-75
2021/04/10 10:53:20;;;;;;;4.60;2.28;;;;;;;7.24;65.68;101632.72;5015589;28;20069;-75
2021/04/10 10:55:58;;;;;;;7.68;2.35;;;;;;;7.14;65.09;101639.84;5017382;28;20076;-73
2021/04/10 10:58:30;;;;;;;4.40;1.90;;;;;;;7.15;66.34;101641.63;5014199;28;20065;-75
2021/04/10 11:00:58;;;;;;;7.45;2.30;;;;;;;6.98;67.44;101638.13;5018126;28;20084;-76
2021/04/10 11:03:25;;;;;;;5.00;1.95;;;;;;;6.86;66.31;101632.00;5017199;28;20061;-73
2021/04/10 11:05:53;;;;;;;5.15;2.20;;;;;;;6.97;68.14;101624.00;5021619;28;20135;-75
2021/04/10 11:08:23;;;;;;;5.55;2.40;;;;;;;6.96;68.70;101632.84;5016308;28;20057;-76
2021/04/10 11:10:54;;;;;;;5.60;2.00;;;;;;;6.89;67.88;101631.09;5021748;28;20057;-74
2021/04/10 11:13:21;;;;;;;5.57;2.17;;;;;;;6.89;68.36;101624.00;5012539;28;20053;-75
2021/04/10 11:15:49;;;;;;;6.10;2.20;;;;;;;6.92;69.20;101613.41;5019930;28;20384;-76
2021/04/10 11:18:26;;;;;;;4.68;2.10;;;;;;;6.96;69.92;101616.91;5016103;28;20138;-74
2021/04/10 11:21:12;;;;;;;4.43;1.95;;;;;;;6.82;70.21;101618.75;5018042;28;20730;-73
2021/04/10 11:24:06;;;;;;;4.68;2.20;;;;;;;6.77;70.64;101608.16;5016869;28;20453;-74
2021/04/10 11:26:45;;;;;;;9.88;2.60;;;;;;;6.84;71.33;101603.72;5013777;28;20113;-73
2021/04/10 11:29:26;;;;;;;4.97;2.20;;;;;;;6.96;71.19;101610.72;5017181;28;20069;-74
2021/04/10 11:32:14;;;;;;;6.93;2.17;;;;;;;6.77;70.84;101602.84;5015268;28;20061;-73
2021/04/10 11:34:57;;;;;;;7.13;2.60;;;;;;;6.84;71.94;101598.41;5017742;28;20483;-73
2021/04/10 11:37:47;;;;;;;6.43;2.40;;;;;;;6.92;70.92;101591.28;5012605;28;20067;-74
2021/04/10 11:40:24;;;;;;;6.43;2.50;;;;;;;6.91;72.52;101598.38;5016419;28;20053;-74
2021/04/10 11:42:53;;;;;;;5.82;1.90;;;;;;;6.82;71.69;101592.22;5012955;28;20123;-74
2021/04/10 11:45:26;;;;;;;5.50;2.17;;;;;;;6.67;71.47;101588.72;5015298;28;20065;-75
2021/04/10 11:48:12;;;;;;;3.47;2.00;;;;;;;6.78;72.96;101585.19;5013245;28;20089;-75